Leisure City, Florida
Current Conditions -  °F | °C
As of 10:58 AM on Thursday 23 Oct 2014 (Local Time) from KHST Reporting Station
Clear Clear  
Wind Chill: 25°   Ceiling: Unl
Heat Index: 27°   Visibility: 10mi
Dew Point: 22°   Wind: 8mph
Humidity: 83%   Direction: 30°NNE
Pressure: 29.93"   Gusts: NA
Location:  25.5°N, 80.43°W
Report Text: KHST 231458Z AUTO 03007KT 10SM CLR 25/22 A2993 RMK AO2 RAB1448DZE1412B1449E1450 SLP138 P0000 60001 T02540224 50010
Loading
Personal Weather Stations






























Interactive Weather Map
Tropical Storm Tracking
New forecast layout! Learn more

10-Day Weather Forecast

Advertisements
Track Severe Weather on mobile